CYXT

Terrace Airport

Terrace, , Canada
TAF CYXT 191838Z 1919/2007 VRB03KT 6SM BR SCT002 OVC010 TEMPO 1919/1922 P6SM NSW FEW015 SCT030 FM200300 03010KT P6SM SCT020 BKN050 TEMPO 2003/2007 4SM -RA BR FEW008 BKN020 OVC050 RMK NXT FCST BY 200100Z
Issued Valid From Valid To
Nov-19 @ 18:38 UTC
(4 hours ago)
Nov-19 @ 19:00 UTC
(3 hours ago)
Nov-20 @ 07:00 UTC
(in 9 hours)
Nov-19 @ 19:00 to Nov-20 @ 03:00
TAF CYXT 191838Z 1919/2007 VRB03KT 6SM BR SCT002 OVC010
Wind Visibility Clouds Conditions
Variable at 3 knots 6 miles
  • Scattered at 200' AGL
  • Overcast at 1,000' AGL
  • Mist
Expired Click to View Nov-19 @ 19:00 to Nov-19 @ 22:00
TEMPO 1919/1922 P6SM NSW FEW015 SCT030
Visibility Clouds Conditions
Greater than 6 miles
  • Few at 1,500' AGL
  • Scattered at 3,000' AGL
From Nov-20 @ 03:00 to Nov-20 @ 07:00
FM200300 03010KT P6SM SCT020 BKN050
Wind Visibility Clouds
30° at 10 knots Greater than 6 miles
  • Scattered at 2,000' AGL
  • Broken at 5,000' AGL
Temporary Nov-20 @ 03:00 to Nov-20 @ 07:00
TEMPO 2003/2007 4SM -RA BR FEW008 BKN020 OVC050 RMK NXT FCST BY 200100Z
Visibility Clouds Conditions
4 miles
  • Few at 800' AGL
  • Broken at 2,000' AGL
  • Overcast at 5,000' AGL
  • Light Rain
  • Mist
TAF CYXT 191838Z 1919/2007 VRB03KT 6SM BR SCT002 OVC010 TEMPO 1919/1922 P6SM NSW FEW015 SCT030 FM200300 03010KT P6SM SCT020 BKN050 TEMPO 2003/2007 4SM -RA BR FEW008 BKN020 OVC050 RMK NXT FCST BY 200100Z
Issued Nov-19 @ 18:38 UTC
(4 hours ago)
Valid From Nov-19 @ 19:00 UTC
(3 hours ago)
Valid To Nov-20 @ 07:00 UTC
(in 9 hours)
Nov-19 @ 19:00 - Nov-20 @ 03:00
Wind Visibility
Variable at 3 knots 6 miles
Clouds
  • Scattered at 200' AGL
  • Overcast at 1,000' AGL
Conditions
  • Mist
Nov-19 @ 19:00 - Nov-19 @ 22:00
Clouds
  • Few at 1,500' AGL
  • Scattered at 3,000' AGL
Conditions
From Nov-20 @ 03:00 - Nov-20 @ 07:00
Wind Visibility
30° at 10 knots Greater than 6 miles
Clouds
  • Scattered at 2,000' AGL
  • Broken at 5,000' AGL
Temporary Nov-20 @ 03:00 - Nov-20 @ 07:00
Clouds
  • Few at 800' AGL
  • Broken at 2,000' AGL
  • Overcast at 5,000' AGL
Conditions
  • Light Rain
  • Mist